Time;durP1;ratioP1;P1;durP2;ratioP2;P2;SDS_P1;SDS_P2;PMS_P1;PMS_P2;Temp;Humidity;BMP_temperature;BMP_pressure;BME280_temperature;BME280_humidity;BME280_pressure;Samples;Min_cycle;Max_cycle;Signal;HPM_P1;HPM_P2
2022/01/18 00:00:17;;;;;;;31.83;4.73;;;8.30;99.90;;;;;;5070993;28;20269;-79
2022/01/18 00:02:45;;;;;;;35.10;5.37;;;8.30;99.90;;;;;;5063443;28;20303;-78
2022/01/18 00:05:15;;;;;;;34.93;5.80;;;8.30;99.90;;;;;;5069249;28;20210;-79
2022/01/18 00:07:43;;;;;;;40.77;6.03;;;8.30;99.90;;;;;;5066949;28;20288;-79
2022/01/18 00:10:11;;;;;;;35.53;5.67;;;8.30;99.90;;;;;;5049450;28;20213;-79
2022/01/18 00:15:29;;;;;;;37.20;5.40;;;8.30;99.90;;;;;;5063909;28;20232;-77
2022/01/18 00:23:38;;;;;;;22.97;5.03;;;8.30;99.90;;;;;;5055263;28;20246;-79
2022/01/18 00:26:08;;;;;;;29.90;4.70;;;8.30;99.90;;;;;;5071311;28;20217;-80
2022/01/18 00:28:37;;;;;;;34.80;6.90;;;8.30;99.90;;;;;;5072616;28;20308;-79
2022/01/18 00:34:06;;;;;;;34.33;4.97;;;8.30;99.90;;;;;;5050710;28;20238;-79
2022/01/18 00:36:52;;;;;;;41.33;5.53;;;8.30;99.90;;;;;;5067639;28;20292;-79
2022/01/18 00:39:19;;;;;;;35.97;6.13;;;8.30;99.90;;;;;;5068345;28;20325;-79
2022/01/18 00:41:46;;;;;;;37.40;6.77;;;8.20;99.90;;;;;;5086994;28;20359;-80
2022/01/18 00:44:14;;;;;;;37.90;5.63;;;8.20;99.90;;;;;;5095502;28;20290;-79
2022/01/18 00:46:42;;;;;;;28.87;5.87;;;8.20;99.90;;;;;;5093934;28;20242;-79
2022/01/18 00:49:10;;;;;;;38.43;7.50;;;8.20;99.90;;;;;;5084550;28;20733;-79
2022/01/18 00:51:39;;;;;;;45.77;5.53;;;8.20;99.90;;;;;;5064120;28;20203;-80
2022/01/18 00:54:09;;;;;;;38.30;6.90;;;8.20;99.90;;;;;;5088631;28;20745;-79
2022/01/18 00:56:40;;;;;;;36.27;6.20;;;8.20;99.90;;;;;;5090182;28;20287;-79
2022/01/18 00:59:07;;;;;;;26.90;5.70;;;8.20;99.90;;;;;;5086640;28;20211;-79
2022/01/18 01:01:36;;;;;;;33.77;6.00;;;8.10;99.90;;;;;;5095580;28;20219;-79
2022/01/18 01:04:04;;;;;;;30.67;5.57;;;8.20;99.90;;;;;;5088104;28;20218;-80
2022/01/18 01:06:32;;;;;;;50.80;7.60;;;8.10;99.90;;;;;;5078097;28;20204;-79
2022/01/18 01:08:59;;;;;;;32.97;6.07;;;8.10;99.90;;;;;;5099964;28;20211;-80
2022/01/18 01:11:26;;;;;;;28.63;5.40;;;8.10;99.90;;;;;;5085269;28;20200;-79
2022/01/18 01:13:55;;;;;;;41.57;6.13;;;8.10;99.90;;;;;;5090967;28;20757;-79
2022/01/18 01:19:21;;;;;;;37.10;5.07;;;8.10;99.90;;;;;;5092950;28;20215;-79
2022/01/18 01:33:16;;;;;;;26.30;5.50;;;8.00;99.90;;;;;;5093936;28;20206;-79
2022/01/18 01:35:51;;;;;;;28.00;5.00;;;8.00;99.90;;;;;;5088213;28;20613;-79
2022/01/18 01:44:02;;;;;;;33.00;5.57;;;7.90;99.90;;;;;;5093354;28;20296;-80
2022/01/18 01:46:30;;;;;;;29.90;6.63;;;7.90;99.90;;;;;;5086969;28;20253;-80
2022/01/18 01:48:59;;;;;;;26.80;5.27;;;7.80;99.90;;;;;;5072761;28;20287;-79
2022/01/18 01:51:30;;;;;;;27.70;5.30;;;7.80;99.90;;;;;;5089354;28;20206;-80
2022/01/18 01:54:03;;;;;;;30.83;6.13;;;7.70;99.90;;;;;;5096922;28;20270;-79
2022/01/18 01:56:31;;;;;;;24.53;5.17;;;7.70;99.90;;;;;;5093173;28;20240;-79
2022/01/18 01:58:58;;;;;;;21.00;5.07;;;7.60;99.90;;;;;;5075616;28;20244;-79
2022/01/18 02:01:26;;;;;;;25.83;5.13;;;7.60;99.90;;;;;;5096460;28;20639;-78
2022/01/18 02:03:53;;;;;;;29.07;5.27;;;7.60;99.90;;;;;;5090195;28;20203;-78
2022/01/18 02:06:22;;;;;;;27.87;6.73;;;7.60;99.90;;;;;;5098925;28;20245;-78
2022/01/18 02:08:49;;;;;;;33.10;5.90;;;7.60;99.90;;;;;;5096058;28;20297;-78
2022/01/18 02:11:16;;;;;;;22.87;5.23;;;7.60;99.90;;;;;;5086050;28;20291;-78
2022/01/18 02:13:43;;;;;;;35.27;5.97;;;7.60;99.90;;;;;;5080497;28;20313;-78
2022/01/18 02:16:17;;;;;;;36.90;6.23;;;7.60;99.90;;;;;;5091694;28;20733;-79
2022/01/18 02:21:48;;;;;;;33.27;6.17;;;7.50;99.90;;;;;;5087069;28;20239;-79
2022/01/18 02:24:17;;;;;;;32.17;6.33;;;7.50;99.90;;;;;;5097923;28;20214;-79
2022/01/18 02:26:44;;;;;;;27.80;5.90;;;7.50;99.90;;;;;;5068755;28;20235;-79
2022/01/18 02:29:12;;;;;;;40.00;5.73;;;7.40;99.90;;;;;;5080236;28;20211;-79
2022/01/18 02:31:39;;;;;;;32.03;5.60;;;7.50;99.90;;;;;;5085651;28;20200;-79
2022/01/18 02:34:13;;;;;;;41.00;6.57;;;7.50;99.90;;;;;;5081265;28;20234;-78
2022/01/18 02:36:41;;;;;;;28.53;6.20;;;7.50;99.90;;;;;;5092679;28;20211;-79
2022/01/18 02:39:09;;;;;;;27.63;6.33;;;7.50;99.90;;;;;;5096257;28;20293;-79
2022/01/18 02:41:37;;;;;;;35.57;6.90;;;7.50;99.90;;;;;;5097449;28;20296;-79
2022/01/18 02:44:10;;;;;;;34.40;7.27;;;7.40;99.90;;;;;;5094031;28;20233;-79
2022/01/18 02:46:38;;;;;;;28.23;5.67;;;7.40;99.90;;;;;;5092113;28;20231;-79
2022/01/18 02:49:06;;;;;;;36.40;6.33;;;7.40;99.90;;;;;;5094753;28;20670;-79
2022/01/18 02:51:34;;;;;;;30.57;6.00;;;7.40;99.90;;;;;;5092919;28;20999;-80
2022/01/18 02:54:07;;;;;;;30.47;6.83;;;7.40;99.90;;;;;;5085344;28;20337;-80
2022/01/18 02:56:46;;;;;;;34.40;6.27;;;7.40;99.90;;;;;;5090130;28;20211;-79
2022/01/18 03:04:29;;;;;;;35.03;6.87;;;7.40;99.90;;;;;;5090620;28;20691;-79
2022/01/18 03:06:56;;;;;;;36.20;6.83;;;7.40;99.90;;;;;;5096784;28;20322;-79
2022/01/18 03:09:22;;;;;;;37.47;6.90;;;7.40;99.90;;;;;;5083585;28;20327;-79
2022/01/18 03:11:49;;;;;;;36.80;7.27;;;7.40;99.90;;;;;;5092894;28;20627;-79
2022/01/18 03:14:16;;;;;;;39.87;7.00;;;7.40;99.90;;;;;;5088500;28;20571;-79
2022/01/18 03:16:43;;;;;;;35.03;7.97;;;7.30;99.90;;;;;;5071746;28;20204;-79
2022/01/18 03:19:10;;;;;;;45.40;7.00;;;7.40;99.90;;;;;;5094877;28;20203;-79
2022/01/18 03:21:37;;;;;;;32.23;6.93;;;7.30;99.90;;;;;;5089779;28;20279;-79
2022/01/18 03:29:36;;;;;;;42.20;7.70;;;7.40;99.90;;;;;;5090716;28;20217;-80
2022/01/18 03:32:04;;;;;;;28.20;6.80;;;7.40;99.90;;;;;;5086066;28;20216;-79
2022/01/18 03:34:30;;;;;;;40.20;6.73;;;7.30;99.90;;;;;;5095319;28;20293;-80
2022/01/18 03:36:58;;;;;;;26.33;6.60;;;7.30;99.90;;;;;;5095744;28;20250;-80
2022/01/18 03:39:25;;;;;;;33.73;7.00;;;7.30;99.90;;;;;;5094266;28;20303;-80
2022/01/18 03:42:03;;;;;;;29.83;6.53;;;7.30;99.90;;;;;;5093827;28;20207;-80
2022/01/18 03:44:31;;;;;;;39.37;6.27;;;7.30;99.90;;;;;;5086595;28;20208;-80
2022/01/18 03:46:58;;;;;;;34.43;6.70;;;7.30;99.90;;;;;;5093295;28;20319;-80
2022/01/18 03:49:27;;;;;;;38.00;6.00;;;7.30;99.90;;;;;;5087036;28;20289;-80
2022/01/18 03:51:54;;;;;;;29.03;6.87;;;7.30;99.90;;;;;;5085173;28;20286;-80
2022/01/18 03:54:23;;;;;;;26.87;5.33;;;7.30;99.90;;;;;;5092648;28;20318;-80
2022/01/18 03:56:50;;;;;;;33.90;6.37;;;7.30;99.90;;;;;;5088979;28;20204;-80
2022/01/18 03:59:17;;;;;;;27.37;5.80;;;7.20;99.90;;;;;;5074889;28;20329;-79
2022/01/18 04:01:44;;;;;;;35.77;6.77;;;7.30;99.90;;;;;;5085199;28;20227;-79
2022/01/18 04:04:12;;;;;;;27.83;5.43;;;7.20;99.90;;;;;;5085807;28;20643;-81
2022/01/18 04:06:39;;;;;;;36.37;6.23;;;7.30;99.90;;;;;;5085830;28;20209;-78
2022/01/18 04:09:06;;;;;;;31.93;6.93;;;7.30;99.90;;;;;;5085660;28;20213;-79
2022/01/18 04:11:33;;;;;;;36.13;7.07;;;7.30;99.90;;;;;;5089001;28;20301;-79
2022/01/18 04:14:00;;;;;;;35.67;6.73;;;7.30;99.90;;;;;;5087939;28;20322;-79
2022/01/18 04:16:26;;;;;;;41.43;6.43;;;7.30;99.90;;;;;;5089398;28;20394;-79
2022/01/18 04:19:09;;;;;;;36.87;7.17;;;7.30;99.90;;;;;;5080004;28;20210;-79
2022/01/18 04:27:07;;;;;;;30.07;5.90;;;7.30;99.90;;;;;;5095179;28;20288;-80
2022/01/18 04:29:34;;;;;;;26.77;6.00;;;7.30;99.90;;;;;;5096789;28;20214;-79
2022/01/18 04:32:00;;;;;;;39.93;6.33;;;7.30;99.90;;;;;;5089170;28;20395;-79
2022/01/18 04:34:27;;;;;;;37.73;6.60;;;7.30;99.90;;;;;;5094944;28;20234;-79
2022/01/18 04:36:54;;;;;;;35.57;7.33;;;7.30;99.90;;;;;;5094525;28;20633;-79
2022/01/18 04:39:20;;;;;;;27.00;5.67;;;7.30;99.90;;;;;;5070110;28;20288;-79
2022/01/18 04:41:47;;;;;;;29.00;6.40;;;7.30;99.90;;;;;;5086610;28;20262;-79
2022/01/18 04:49:48;;;;;;;37.27;7.60;;;7.20;99.90;;;;;;5088589;28;20880;-79
2022/01/18 04:52:15;;;;;;;27.33;6.43;;;7.20;99.90;;;;;;5096079;28;20233;-79
2022/01/18 04:54:44;;;;;;;33.70;6.23;;;7.20;99.90;;;;;;5096390;28;20343;-79
2022/01/18 04:59:38;;;;;;;26.13;6.80;;;7.30;99.90;;;;;;5088851;28;20214;-79
2022/01/18 05:02:05;;;;;;;21.37;6.87;;;7.20;99.90;;;;;;5084066;28;20241;-78
2022/01/18 05:04:32;;;;;;;24.60;6.47;;;7.20;99.90;;;;;;5086737;28;20211;-80
2022/01/18 05:07:01;;;;;;;24.80;6.27;;;7.20;99.90;;;;;;5078788;28;20256;-79
2022/01/18 05:09:27;;;;;;;25.07;5.70;;;7.20;99.90;;;;;;5092569;28;20202;-79
2022/01/18 05:12:09;;;;;;;29.07;5.87;;;7.10;99.90;;;;;;5073550;28;20239;-79
2022/01/18 05:14:37;;;;;;;27.87;5.93;;;7.20;99.90;;;;;;5072586;28;20269;-78
2022/01/18 05:17:34;;;;;;;32.40;6.73;;;7.10;99.90;;;;;;5082853;28;20237;-79
2022/01/18 05:25:15;;;;;;;23.10;5.90;;;7.10;99.90;;;;;;5097371;28;20786;-80
2022/01/18 05:27:42;;;;;;;23.17;5.87;;;7.10;99.90;;;;;;5069057;28;20218;-80
2022/01/18 05:30:09;;;;;;;18.53;5.23;;;7.10;99.90;;;;;;5083795;28;20630;-80
2022/01/18 05:32:36;;;;;;;21.20;5.00;;;7.10;99.90;;;;;;5080286;28;20774;-79
2022/01/18 05:35:03;;;;;;;20.03;5.50;;;7.10;99.90;;;;;;5092407;28;20231;-79
2022/01/18 05:37:30;;;;;;;27.33;6.67;;;7.10;99.90;;;;;;5092507;28;20205;-79
2022/01/18 05:39:57;;;;;;;27.13;6.27;;;7.10;99.90;;;;;;5087898;28;20276;-80
2022/01/18 05:42:23;;;;;;;20.63;5.27;;;7.10;99.90;;;;;;5087131;28;20649;-79
2022/01/18 05:44:50;;;;;;;22.63;6.10;;;7.10;99.90;;;;;;5079780;28;20207;-81
2022/01/18 05:47:17;;;;;;;20.07;4.80;;;7.10;99.90;;;;;;5089727;28;20747;-80
2022/01/18 05:49:43;;;;;;;17.00;4.97;;;7.10;99.90;;;;;;5098379;28;20215;-79
2022/01/18 05:52:10;;;;;;;13.70;4.13;;;7.10;99.90;;;;;;5084071;28;20206;-80
2022/01/18 05:54:37;;;;;;;21.07;5.20;;;7.00;99.90;;;;;;5079508;28;20340;-80
2022/01/18 05:57:04;;;;;;;16.60;4.57;;;7.00;99.90;;;;;;5084664;28;20205;-80
2022/01/18 05:59:36;;;;;;;21.60;5.73;;;7.00;99.90;;;;;;5081878;28;20211;-81
2022/01/18 06:02:14;;;;;;;20.13;5.97;;;7.00;99.90;;;;;;5091021;28;20666;-79
2022/01/18 06:06:51;;;;;;;24.50;5.47;;;7.00;99.90;;;;;;5069469;28;20685;-79
2022/01/18 06:07:30;;;;;;;22.70;5.10;;;7.00;99.90;;;;;;5090549;28;20214;-79
2022/01/18 06:09:58;;;;;;;25.57;5.70;;;7.00;99.90;;;;;;5072439;28;20738;-79
2022/01/18 06:12:27;;;;;;;24.80;5.47;;;7.00;99.90;;;;;;5081529;28;20312;-81
2022/01/18 06:14:54;;;;;;;20.20;5.53;;;7.00;99.90;;;;;;5093638;28;20257;-80
2022/01/18 06:17:21;;;;;;;17.00;4.60;;;6.90;99.90;;;;;;5086480;28;20201;-80
2022/01/18 06:19:49;;;;;;;20.47;5.83;;;6.90;99.90;;;;;;5092394;28;20681;-79
2022/01/18 06:22:16;;;;;;;23.57;5.63;;;6.90;99.90;;;;;;5093049;28;20205;-80
2022/01/18 06:24:43;;;;;;;18.77;5.33;;;6.90;99.90;;;;;;5093595;28;20321;-79
2022/01/18 06:27:10;;;;;;;14.13;4.40;;;6.90;99.90;;;;;;5084390;28;20199;-80
2022/01/18 06:29:37;;;;;;;14.67;4.07;;;6.90;99.90;;;;;;5080039;28;20218;-81
2022/01/18 06:32:06;;;;;;;20.73;4.43;;;6.90;99.90;;;;;;5093141;28;20214;-80
2022/01/18 06:34:33;;;;;;;17.40;4.77;;;6.90;99.90;;;;;;5088540;28;20204;-80
2022/01/18 06:36:59;;;;;;;17.67;4.47;;;6.80;99.90;;;;;;5085400;28;20208;-80
2022/01/18 06:39:28;;;;;;;15.93;4.60;;;6.70;99.90;;;;;;5090782;28;20659;-80
2022/01/18 06:41:55;;;;;;;14.67;3.80;;;6.70;99.90;;;;;;5096056;28;20210;-80
2022/01/18 06:44:24;;;;;;;11.53;3.73;;;6.70;99.90;;;;;;5072485;28;20209;-80
2022/01/18 06:46:51;;;;;;;18.07;3.97;;;6.70;99.90;;;;;;5088669;28;20218;-80
2022/01/18 06:49:18;;;;;;;13.07;3.77;;;6.70;99.90;;;;;;5093805;28;20237;-80
2022/01/18 06:51:45;;;;;;;10.43;4.23;;;6.70;99.90;;;;;;5094581;28;20206;-81
2022/01/18 06:54:16;;;;;;;11.17;4.00;;;6.70;99.90;;;;;;5093477;28;20217;-80
2022/01/18 06:56:46;;;;;;;11.70;4.03;;;6.80;99.90;;;;;;5099552;28;20231;-80
2022/01/18 06:59:13;;;;;;;12.43;4.70;;;6.80;99.90;;;;;;5072921;28;20297;-81
2022/01/18 07:01:41;;;;;;;12.43;4.90;;;6.80;99.90;;;;;;5067605;28;20209;-80
2022/01/18 07:04:08;;;;;;;16.13;4.90;;;6.70;99.90;;;;;;5097571;28;20707;-81
2022/01/18 07:06:35;;;;;;;8.93;4.30;;;6.70;99.90;;;;;;5076792;28;20295;-81
2022/01/18 07:09:02;;;;;;;10.40;4.23;;;6.70;99.90;;;;;;5090371;28;20767;-81
2022/01/18 07:11:29;;;;;;;11.30;3.83;;;6.60;99.90;;;;;;5092308;28;20212;-80
2022/01/18 07:13:56;;;;;;;13.63;4.00;;;6.60;99.90;;;;;;5095163;28;20204;-81
2022/01/18 07:16:23;;;;;;;12.30;3.97;;;6.60;99.90;;;;;;5092534;28;20227;-81
2022/01/18 07:18:50;;;;;;;10.13;4.93;;;6.50;99.90;;;;;;5090184;28;20212;-81
2022/01/18 07:21:16;;;;;;;12.20;4.07;;;6.50;99.90;;;;;;5096905;28;20212;-81
2022/01/18 07:23:43;;;;;;;8.90;3.70;;;6.50;99.90;;;;;;5093956;28;20294;-81
2022/01/18 07:26:10;;;;;;;10.67;4.63;;;6.50;99.90;;;;;;5096100;28;20672;-80
2022/01/18 07:28:36;;;;;;;15.77;5.17;;;6.50;99.90;;;;;;5093554;28;20241;-81
2022/01/18 07:31:03;;;;;;;14.50;4.67;;;6.50;99.90;;;;;;5073595;28;20291;-81
2022/01/18 07:33:30;;;;;;;13.90;4.93;;;6.40;99.90;;;;;;5087555;28;20210;-81
2022/01/18 07:35:57;;;;;;;16.83;6.40;;;6.30;99.90;;;;;;5071691;28;20234;-80
2022/01/18 07:38:23;;;;;;;16.50;7.07;;;6.30;99.90;;;;;;5091231;28;20224;-81
2022/01/18 07:40:53;;;;;;;15.43;7.57;;;6.30;99.90;;;;;;5098348;28;20315;-81
2022/01/18 07:43:21;;;;;;;15.40;5.87;;;6.30;99.90;;;;;;5081080;28;20201;-81
2022/01/18 07:45:49;;;;;;;20.20;5.90;;;6.30;99.90;;;;;;5083949;28;20289;-81
2022/01/18 07:48:22;;;;;;;10.53;5.47;;;6.30;99.90;;;;;;5092002;28;20214;-81
2022/01/18 07:50:51;;;;;;;13.73;6.70;;;6.30;99.90;;;;;;5069947;28;20824;-81
2022/01/18 07:53:21;;;;;;;13.07;5.53;;;6.30;99.90;;;;;;5078900;28;20651;-80
2022/01/18 07:55:48;;;;;;;15.97;6.53;;;6.30;99.90;;;;;;5094685;28;20332;-82
2022/01/18 07:58:15;;;;;;;14.57;5.83;;;6.30;99.90;;;;;;5092391;28;20216;-80
2022/01/18 08:00:42;;;;;;;15.53;6.70;;;6.20;99.90;;;;;;5085136;28;20292;-81
2022/01/18 08:03:09;;;;;;;16.60;7.07;;;6.30;99.90;;;;;;5080681;28;20282;-81
2022/01/18 08:05:37;;;;;;;18.93;7.03;;;6.20;99.90;;;;;;5096424;28;20293;-81
2022/01/18 08:08:08;;;;;;;17.40;6.33;;;6.30;99.90;;;;;;5096245;28;20221;-81
2022/01/18 08:10:35;;;;;;;17.07;6.47;;;6.20;99.90;;;;;;5097438;28;20253;-81
2022/01/18 08:13:03;;;;;;;17.60;5.93;;;6.20;99.90;;;;;;5094649;28;20268;-82
2022/01/18 08:15:38;;;;;;;17.30;6.43;;;6.20;99.90;;;;;;5072511;28;20240;-81
2022/01/18 08:18:14;;;;;;;14.23;6.03;;;6.20;99.90;;;;;;5080699;28;20215;-82
2022/01/18 08:20:41;;;;;;;12.63;5.57;;;6.20;99.90;;;;;;5098355;28;20205;-81
2022/01/18 08:23:08;;;;;;;13.20;5.93;;;6.20;99.90;;;;;;5090051;28;20245;-80
2022/01/18 08:25:35;;;;;;;14.47;5.30;;;6.20;99.90;;;;;;5094696;28;20220;-82
2022/01/18 08:28:02;;;;;;;16.70;5.93;;;6.30;99.90;;;;;;5100719;28;20272;-81
2022/01/18 08:30:29;;;;;;;15.37;5.83;;;6.30;99.90;;;;;;5073418;28;20300;-81
2022/01/18 08:32:56;;;;;;;13.13;5.50;;;6.30;99.90;;;;;;5094322;28;20296;-81
2022/01/18 08:35:24;;;;;;;14.33;5.97;;;6.30;99.90;;;;;;5097564;28;20233;-83
2022/01/18 08:37:52;;;;;;;16.63;6.60;;;6.30;99.90;;;;;;5095238;28;20210;-81
2022/01/18 08:40:18;;;;;;;18.50;6.83;;;6.30;99.90;;;;;;5098383;28;20707;-82
2022/01/18 08:42:45;;;;;;;18.07;6.87;;;6.30;99.90;;;;;;5071972;28;20199;-82
2022/01/18 08:45:12;;;;;;;21.03;7.53;;;6.30;99.90;;;;;;5096238;28;20665;-81
2022/01/18 08:47:45;;;;;;;19.13;6.70;;;6.30;99.90;;;;;;5095652;28;20577;-82
2022/01/18 08:50:12;;;;;;;18.93;6.20;;;6.30;99.90;;;;;;5091794;28;20566;-82
2022/01/18 08:52:40;;;;;;;18.13;5.80;;;6.20;99.90;;;;;;5095384;28;20668;-82
2022/01/18 08:55:07;;;;;;;18.53;6.00;;;6.10;99.90;;;;;;5098006;28;20240;-83
2022/01/18 08:57:34;;;;;;;19.13;6.87;;;6.00;99.90;;;;;;5093979;28;20201;-82
2022/01/18 09:00:02;;;;;;;16.43;6.03;;;6.00;99.90;;;;;;5096549;28;20234;-81
2022/01/18 09:02:28;;;;;;;13.97;5.87;;;6.00;99.90;;;;;;5099215;28;20272;-82
2022/01/18 09:04:55;;;;;;;22.77;5.87;;;6.10;99.90;;;;;;5094722;28;20539;-81
2022/01/18 09:07:23;;;;;;;15.73;6.70;;;6.10;99.90;;;;;;5094558;28;20222;-83
2022/01/18 09:09:55;;;;;;;15.90;5.07;;;6.10;99.90;;;;;;5101975;28;20209;-82
2022/01/18 09:12:21;;;;;;;13.03;5.17;;;6.10;99.90;;;;;;5087381;28;20241;-81
2022/01/18 09:14:49;;;;;;;14.87;5.37;;;6.10;99.90;;;;;;5083694;28;20236;-82
2022/01/18 09:17:16;;;;;;;12.10;5.20;;;6.20;99.90;;;;;;5078333;28;20229;-78
2022/01/18 09:19:43;;;;;;;13.77;5.20;;;6.20;99.90;;;;;;5097098;28;20304;-80
2022/01/18 09:22:10;;;;;;;10.47;4.73;;;6.20;99.90;;;;;;5094067;28;20214;-82
2022/01/18 09:24:36;;;;;;;12.40;4.53;;;6.30;99.90;;;;;;5093681;28;20325;-82
2022/01/18 09:27:04;;;;;;;17.90;5.47;;;6.30;99.90;;;;;;5095812;28;20672;-83
2022/01/18 09:29:31;;;;;;;13.57;5.10;;;6.40;99.90;;;;;;5084970;28;20685;-82
2022/01/18 09:31:58;;;;;;;11.63;4.73;;;6.30;99.90;;;;;;5092787;28;20200;-83
2022/01/18 09:34:25;;;;;;;10.13;4.87;;;6.40;99.90;;;;;;5094302;28;20596;-83
2022/01/18 09:36:52;;;;;;;10.23;5.00;;;6.40;99.90;;;;;;5094979;28;20233;-82
2022/01/18 09:39:18;;;;;;;12.63;4.97;;;6.40;99.90;;;;;;5074511;28;20279;-83
2022/01/18 09:41:50;;;;;;;14.30;5.70;;;6.40;99.90;;;;;;5079356;28;20293;-83
2022/01/18 09:44:18;;;;;;;10.63;5.83;;;6.40;99.90;;;;;;5089906;28;20292;-82
2022/01/18 09:46:47;;;;;;;15.33;5.23;;;6.50;99.90;;;;;;5072153;28;20237;-82
2022/01/18 09:49:14;;;;;;;12.20;5.20;;;6.50;99.90;;;;;;5085063;28;20312;-84
2022/01/18 09:51:41;;;;;;;14.70;5.33;;;6.50;99.90;;;;;;5091374;28;20232;-82
2022/01/18 09:54:07;;;;;;;11.47;5.23;;;6.50;99.90;;;;;;5096514;28;20649;-82
2022/01/18 09:56:34;;;;;;;11.07;5.60;;;6.60;99.90;;;;;;5094032;28;20698;-82
2022/01/18 09:59:01;;;;;;;18.07;5.87;;;6.50;99.90;;;;;;5083072;28;20205;-82
2022/01/18 10:01:29;;;;;;;16.97;6.37;;;6.60;99.90;;;;;;5092352;28;20604;-83
2022/01/18 10:04:19;;;;;;;13.57;5.83;;;6.60;99.90;;;;;;5075679;28;20206;-83
2022/01/18 10:06:48;;;;;;;23.17;6.83;;;6.60;99.90;;;;;;5090372;28;20287;-82
2022/01/18 10:09:18;;;;;;;16.77;6.97;;;6.60;99.90;;;;;;5093962;28;20536;-82
2022/01/18 10:12:15;;;;;;;15.60;6.90;;;6.60;99.90;;;;;;5091429;28;20215;-82
2022/01/18 10:14:55;;;;;;;18.63;7.63;;;6.60;99.90;;;;;;5068147;28;20198;-83
2022/01/18 10:17:31;;;;;;;14.77;6.97;;;6.60;99.90;;;;;;5072632;28;20754;-83
2022/01/18 10:20:07;;;;;;;19.77;8.43;;;6.60;99.90;;;;;;5093989;28;20205;-83
2022/01/18 10:22:48;;;;;;;13.53;7.53;;;6.60;99.90;;;;;;5093783;28;20591;-82
2022/01/18 10:25:19;;;;;;;14.43;6.37;;;6.60;99.90;;;;;;5091546;28;20571;-83
2022/01/18 10:27:49;;;;;;;15.57;6.37;;;6.60;99.90;;;;;;5093064;28;20198;-82
2022/01/18 10:30:35;;;;;;;13.87;6.33;;;6.60;99.90;;;;;;5088379;28;20214;-82
2022/01/18 10:33:20;;;;;;;10.77;5.67;;;6.60;99.90;;;;;;5073555;28;20261;-84
2022/01/18 10:36:08;;;;;;;15.43;5.67;;;6.70;99.90;;;;;;5068534;28;20652;-83
2022/01/18 10:38:37;;;;;;;15.93;6.17;;;6.70;99.90;;;;;;5088432;28;20308;-83
2022/01/18 10:41:28;;;;;;;12.67;5.63;;;6.70;99.90;;;;;;5083102;28;20234;-82
2022/01/18 10:44:08;;;;;;;11.63;5.40;;;6.80;99.90;;;;;;5043868;28;20293;-82
2022/01/18 10:46:39;;;;;;;14.10;5.53;;;6.70;99.90;;;;;;5047310;28;20216;-83
2022/01/18 10:49:06;;;;;;;16.00;5.90;;;6.70;99.90;;;;;;5036665;28;20231;-82
2022/01/18 10:51:36;;;;;;;14.53;5.93;;;6.80;99.90;;;;;;5074720;28;20277;-82
2022/01/18 10:54:09;;;;;;;10.57;5.37;;;6.80;99.90;;;;;;5072675;28;20265;-83
2022/01/18 10:56:41;;;;;;;11.23;5.13;;;6.80;99.90;;;;;;5054143;28;20234;-83
2022/01/18 10:59:19;;;;;;;11.23;5.07;;;6.80;99.90;;;;;;5070827;28;20717;-83
2022/01/18 11:02:02;;;;;;;16.87;5.97;;;6.70;99.90;;;;;;5050218;28;20306;-84
2022/01/18 11:04:29;;;;;;;14.50;5.47;;;6.70;99.90;;;;;;5072866;28;20754;-84
2022/01/18 11:06:58;;;;;;;17.27;5.67;;;6.70;99.90;;;;;;5075412;28;20221;-84
2022/01/18 11:09:25;;;;;;;9.17;5.43;;;6.70;99.90;;;;;;5069917;28;20207;-83
2022/01/18 11:11:52;;;;;;;14.90;5.57;;;6.90;99.90;;;;;;5050242;28;20307;-82
2022/01/18 11:14:21;;;;;;;12.83;5.37;;;6.90;99.90;;;;;;5073823;28;20642;-83
2022/01/18 11:16:55;;;;;;;15.37;5.60;;;7.00;99.90;;;;;;5067427;28;20240;-82
2022/01/18 11:21:55;;;;;;;15.17;5.40;;;7.10;99.90;;;;;;5075609;28;20220;-83
2022/01/18 11:24:22;;;;;;;13.60;5.50;;;7.20;99.90;;;;;;5055732;28;20208;-84
2022/01/18 11:26:50;;;;;;;14.07;5.90;;;7.10;99.90;;;;;;5070660;28;20222;-84
2022/01/18 11:29:20;;;;;;;10.63;5.43;;;7.10;99.90;;;;;;5074996;28;20219;-82
2022/01/18 11:31:53;;;;;;;11.60;5.67;;;7.10;99.90;;;;;;5070226;28;20239;-82
2022/01/18 11:34:50;;;;;;;10.90;5.23;;;7.20;99.90;;;;;;5068088;28;20295;-83
2022/01/18 11:37:30;;;;;;;14.47;5.73;;;7.30;99.90;;;;;;5055978;28;20235;-84
2022/01/18 11:40:09;;;;;;;14.17;4.90;;;7.30;99.90;;;;;;5078160;28;20760;-86
2022/01/18 11:42:49;;;;;;;15.80;5.43;;;7.30;99.90;;;;;;5060609;28;20270;-84
2022/01/18 11:45:25;;;;;;;11.93;6.30;;;7.30;99.90;;;;;;5063147;28;20672;-83
2022/01/18 11:48:11;;;;;;;13.60;5.97;;;7.30;99.90;;;;;;5064813;28;20682;-84
2022/01/18 11:50:42;;;;;;;16.13;6.27;;;7.30;99.90;;;;;;5077259;28;20292;-83
2022/01/18 11:53:28;;;;;;;12.97;5.90;;;7.30;99.90;;;;;;5070280;28;20697;-82
2022/01/18 11:55:58;;;;;;;16.63;6.03;;;7.20;99.90;;;;;;5059365;28;20715;-84
2022/01/18 11:58:26;;;;;;;14.50;6.97;;;7.20;99.90;;;;;;5069927;28;20251;-84
2022/01/18 12:00:56;;;;;;;15.90;7.30;;;7.20;99.90;;;;;;5043811;28;20300;-84
2022/01/18 12:03:27;;;;;;;19.50;8.33;;;7.20;99.90;;;;;;5048691;28;20209;-85
2022/01/18 12:06:00;;;;;;;18.80;7.97;;;7.30;99.90;;;;;;5073346;28;20238;-83
2022/01/18 12:08:37;;;;;;;19.97;9.27;;;7.20;99.90;;;;;;5075650;28;20215;-83
2022/01/18 12:11:10;;;;;;;19.27;8.30;;;7.30;99.90;;;;;;5057963;28;20280;-84
2022/01/18 12:13:40;;;;;;;23.03;9.30;;;7.10;99.90;;;;;;5071978;28;20226;-83
2022/01/18 12:16:17;;;;;;;22.23;9.33;;;7.00;99.90;;;;;;5047334;28;20315;-83
2022/01/18 12:19:14;;;;;;;25.90;10.47;;;7.00;99.90;;;;;;5053837;28;20213;-83
2022/01/18 12:21:44;;;;;;;25.03;9.33;;;7.00;99.90;;;;;;5048226;28;20224;-83
2022/01/18 12:24:22;;;;;;;25.17;10.57;;;7.10;99.90;;;;;;5057757;28;20698;-84
2022/01/18 12:26:59;;;;;;;24.33;10.03;;;7.10;99.90;;;;;;5065122;28;20232;-84
2022/01/18 12:34:46;;;;;;;19.60;9.00;;;7.00;99.90;;;;;;5075514;28;20206;-86
2022/01/18 12:37:14;;;;;;;23.10;8.83;;;7.00;99.90;;;;;;5063014;28;20470;-85
2022/01/18 12:39:50;;;;;;;20.37;8.83;;;7.00;99.90;;;;;;5083244;28;20231;-86
2022/01/18 12:44:20;;;;;;;17.60;8.83;;;7.00;99.90;;;;;;5067213;28;20605;-83
2022/01/18 12:45:14;;;;;;;13.97;7.77;;;7.10;99.90;;;;;;5067300;28;20216;-85
2022/01/18 12:47:53;;;;;;;14.70;6.80;;;7.10;99.90;;;;;;5066331;28;20315;-85
2022/01/18 12:50:22;;;;;;;18.63;7.47;;;7.10;99.90;;;;;;5077371;28;20246;-85
2022/01/18 12:53:07;;;;;;;14.70;6.23;;;7.10;99.90;;;;;;5062334;28;21052;-86
2022/01/18 12:55:57;;;;;;;15.87;7.03;;;7.00;99.90;;;;;;5051339;28;20231;-84
2022/01/18 12:58:24;;;;;;;20.87;6.83;;;7.00;99.90;;;;;;5071388;28;20231;-86
2022/01/18 13:01:13;;;;;;;22.00;8.40;;;7.00;99.90;;;;;;5078521;28;20720;-85
2022/01/18 13:04:00;;;;;;;18.97;8.10;;;7.00;99.90;;;;;;5062077;28;20614;-85
2022/01/18 13:06:31;;;;;;;20.83;8.50;;;7.10;99.90;;;;;;5075632;28;20513;-85
2022/01/18 13:09:00;;;;;;;24.50;9.50;;;7.10;99.90;;;;;;5063602;28;20289;-83
2022/01/18 13:11:32;;;;;;;20.97;9.00;;;7.10;99.90;;;;;;5055957;28;20208;-84
2022/01/18 13:14:08;;;;;;;24.37;9.90;;;7.10;99.90;;;;;;5058601;28;20220;-84
2022/01/18 13:27:41;;;;;;;23.07;9.13;;;7.10;99.90;;;;;;5073680;28;20647;-83
2022/01/18 13:30:18;;;;;;;20.77;8.90;;;7.10;99.90;;;;;;5067483;28;20219;-86
2022/01/18 13:32:47;;;;;;;22.37;8.80;;;7.10;99.90;;;;;;5060909;28;20217;-84
2022/01/18 13:35:16;;;;;;;21.37;8.37;;;7.10;99.90;;;;;;5080496;28;20291;-85
2022/01/18 13:37:43;;;;;;;16.97;8.23;;;7.20;99.90;;;;;;5063472;28;20249;-85
2022/01/18 13:40:14;;;;;;;18.37;8.07;;;7.10;99.90;;;;;;5065255;28;20234;-86
2022/01/18 13:42:49;;;;;;;21.23;7.80;;;7.10;99.90;;;;;;5078787;28;20206;-87
2022/01/18 13:45:24;;;;;;;16.17;7.70;;;7.10;99.90;;;;;;5073287;28;20305;-85
2022/01/18 13:47:59;;;;;;;16.63;8.60;;;7.10;99.90;;;;;;5091691;28;20208;-84
2022/01/18 13:50:47;;;;;;;22.83;8.77;;;7.10;99.90;;;;;;5101412;28;20214;-85
2022/01/18 13:53:21;;;;;;;28.23;8.80;;;7.00;99.90;;;;;;5072560;28;20730;-86
2022/01/18 13:55:52;;;;;;;21.80;8.63;;;7.00;99.90;;;;;;5085884;28;20211;-85
2022/01/18 13:58:40;;;;;;;18.37;8.00;;;7.00;99.90;;;;;;5071608;28;20701;-85
2022/01/18 14:01:10;;;;;;;16.00;7.57;;;6.90;99.90;;;;;;5074181;28;20226;-85
2022/01/18 14:03:49;;;;;;;20.57;7.40;;;7.00;99.90;;;;;;5075144;28;20211;-85
2022/01/18 14:06:17;;;;;;;20.27;7.17;;;6.90;99.90;;;;;;5088014;28;20696;-84
2022/01/18 14:08:52;;;;;;;18.60;7.20;;;6.80;99.90;;;;;;5093569;28;20220;-86
2022/01/18 14:11:34;;;;;;;16.70;7.20;;;6.70;99.90;;;;;;5093155;28;20203;-84
2022/01/18 14:14:18;;;;;;;23.73;7.57;;;6.70;99.90;;;;;;5067892;28;20635;-86
2022/01/18 14:16:47;;;;;;;21.47;7.67;;;6.80;99.90;;;;;;5089952;28;20719;-85
2022/01/18 14:19:28;;;;;;;19.73;7.90;;;6.80;99.90;;;;;;5093033;28;20632;-85
2022/01/18 14:21:58;;;;;;;21.40;7.93;;;6.80;99.90;;;;;;5084691;28;20754;-86
2022/01/18 14:24:34;;;;;;;23.03;8.67;;;6.70;99.90;;;;;;5078704;28;20210;-85
2022/01/18 14:27:03;;;;;;;21.67;8.07;;;6.70;99.90;;;;;;5092458;28;20288;-84